Tiempo atmosférico en la estación meteorológica de Llimiana, Lleida (515 m.)



Fecha
DESCASC
Temp. máxima en grados centígrados (hora)
DESCASC
Temp. mínima en grados centígrados (hora)
DESCASC
Temp. media en grados centígrados
DESCASC
Racha de viento máxima en m/sg (hora)
DESCASC
Velocidad máxima media en intervalos de 10 minutos(hora)
DESCASC
Precipitaciones diarias en mm
DESCASC
Precipitaciones de 00:00 a 06:00 en mm
DESCASC
Precipitaciones de 06:00 a 12:00 en mm
DESCASC
Precipitaciones de 12:00 a 18:00 en mm
DESCASC
Precipitaciones de 18:00 a 24:00 en mm
DESCASC
13-06-2019 27.7 (16:50) 7.1 (06:50) 17.4 8.61 (15:40) 3.89 (15:40) 0 0 0 0 0
12-06-2019 23.5 (17:40) 4.3 (06:30) 13.9 8.33 (14:30) 4.17 (18:30) 0.2 0 0.2 0 0
11-06-2019 17.8 (00:00) 8.2 (23:59) 13 9.72 (00:10) 6.11 (00:20) 12 0.6 9.4 2 0
10-06-2019 28.1 (17:10) 13.2 (05:50) 20.7 11.39 (12:30) 6.39 (12:30) 0 0 0 0 0
09-06-2019 30.5 (18:50) 14.4 (00:00) 22.4 8.06 (20:20) 4.17 (20:10) 0 0 0 0 0
08-06-2019 28.9 (15:40) 6.3 (00:00) 17.6 9.17 (16:40) 5.28 (17:00) 0 0 0 0 0
07-06-2019 25.1 (18:30) 11.4 (00:00) 18.3 12.22 (14:20) 6.11 (11:50) 0 0 0 0 0
06-06-2019 26.2 (15:30) 7.2 (00:00) 16.7 10.28 (15:20) 5.28 (12:50) 0 0 0 0 0
05-06-2019 23.1 (17:10) 12.8 (00:00) 18 11.11 (02:30) 6.39 (02:30) 1.4 0 0.6 0.8 0
04-06-2019 32.5 (17:10) 12.3 (00:00) 22.4 11.94 (19:40) 6.11 (23:50) 0 0 0 0 0
03-06-2019 32.4 (15:30) 14.1 (00:00) 23.3 9.17 (18:10) 5.28 (18:10) 0 0 0 0 0
02-06-2019 32.3 (14:40) 11.8 (00:00) 22 10.28 (20:20) 6.11 (20:30) 0 0 0 0 0
01-06-2019 31.6 (16:10) 11.3 (00:00) 21.5 10.56 (21:10) 5.83 (21:10) 0 0 0 0 0
31-05-2019 29.4 (17:10) 9.7 (00:00) 19.5 9.17 (22:00) 5 (18:20) 0 0 0 0 0
30-05-2019 27.1 (17:40) 7 (00:00) 17.1 10.28 (16:40) 6.11 (16:50) 0 0 0 0 0
29-05-2019 25.1 (17:40) 8.4 (00:00) 16.8 7.5 (18:20) 4.17 (18:50) 0 0 0 0 0
28-05-2019 23.8 (16:30) 10.8 (00:00) 17.3 10.56 (12:00) 6.11 (12:30) 0 0 0 0 0
27-05-2019 25.2 (15:30) 7.7 (00:00) 16.5 9.72 (16:00) 5.28 (16:00) 0 0 0 0 0
26-05-2019 26.2 (16:40) 7.1 (00:00) 16.7 7.78 (16:40) 3.89 (12:40) 0 0 0 0 0
25-05-2019 23.7 (17:20) 12 (00:00) 17.9 10.56 (15:40) 6.11 (15:40) 0 0 0 0 0
24-05-2019 18 (00:00) 13.1 (00:00) 15.6 5.28 (20:30) 2.5 (20:20) 18.8 1.6 16.8 0.4 0
23-05-2019 29.1 (16:00) 6.9 (00:00) 18 8.33 (21:10) 4.72 (21:00) 0 0 0 0 0
22-05-2019 26.3 (17:20) 8.3 (00:00) 17.3 8.89 (00:20) 5 (14:40) 0 0 0 0 0
21-05-2019 24.9 (16:30) 6.1 (07:10) 15.5 10.83 (22:30) 5.83 (23:10) 0 0 0 0 0
20-05-2019 22.9 (17:30) 5.3 (05:10) 14.1 10.83 (15:40) 6.11 (14:00) 0.2 0 0.2 0 0
19-05-2019 20.3 (16:10) 5.4 (00:00) 12.8 9.17 (17:20) 5 (17:20) 0.2 0 0 0 0.2
18-05-2019 18.8 (15:00) 8.2 (00:00) 13.5 11.94 (16:30) 6.39 (12:50) 0 0 0 0 0
17-05-2019 17.8 (14:10) 10.1 (00:00) 13.9 15.56 (05:00) 7.78 (00:50) 8 5.8 1.8 0 0.4

Gráficas

Temp. máximas Temp. mínimas Temp. medias Precipitaciones Rachas de viento máximas Velocidades máximas media en intervalos de 10 minutos

Datos horarios

Fecha y hora oficial Temperatura (ºC) Velocidad del viento (km/h) Dirección del viento Racha (km/h) Dirección de racha Precipitación (mm) Presión (hPa) Tendencia (hPa) Humedad (%)
2019-06-15 23:00:00 18.2 4 Norte 10 Este 0 -- -- 30
2019-06-15 22:00:00 19.6 5 Norte 15 Oeste 0 -- -- 26
2019-06-15 21:00:00 24 8 Oeste 23 Sudoeste 0 -- -- 22
2019-06-15 20:00:00 26.3 10 Oeste 24 Oeste 0 -- -- 20
2019-06-15 19:00:00 27.9 12 Oeste 28 Oeste 0 -- -- 17
2019-06-15 18:00:00 28.6 12 Oeste 29 Sudoeste 0 -- -- 17
2019-06-15 17:00:00 28.3 9 Oeste 22 Sudoeste 0 -- -- 16
2019-06-15 16:00:00 27.9 16 Sudoeste 28 Sudoeste 0 -- -- 20
2019-06-15 15:00:00 27.5 12 Sudoeste 30 Sur 0 -- -- 23
2019-06-15 14:00:00 25.8 15 Sur 32 Sudoeste 0 -- -- 29
2019-06-15 13:00:00 25.6 17 Sudoeste 30 Sudoeste 0 -- -- 32
2019-06-15 12:00:00 24.3 16 Sudoeste 27 Sudoeste 0 -- -- 33
2019-06-15 11:00:00 23.1 16 Sudoeste 31 Oeste 0 -- -- 38
2019-06-15 10:00:00 21.4 7 Sudoeste 19 Sudoeste 0 -- -- 44
2019-06-15 09:00:00 16 0 Calma 9 Sudoeste 0 -- -- 67
2019-06-15 08:00:00 14.3 2 Este 6 Norte 0 -- -- 73
2019-06-15 07:00:00 14.4 2 Nordeste 6 Sudeste 0 -- -- 71
2019-06-15 06:00:00 14 0 Calma 6 Este 0 -- -- 72
2019-06-15 05:00:00 15.3 3 Este 15 Este 0 -- -- 64
2019-06-15 04:00:00 17 15 Este 22 Este 0 -- -- 58
2019-06-15 03:00:00 15.4 3 Norte 9 Norte 0 -- -- 65
2019-06-15 02:00:00 17.3 5 Norte 12 Sudeste 0 -- -- 57
2019-06-15 01:00:00 17.8 3 Norte 6 Nordeste 0 -- -- 55
2019-06-15 00:00:00 19.9 5 Oeste 15 Oeste 0 -- -- 47
2019-06-14 23:00:00 20.6 2 Este 18 Sudeste 0 -- -- 43
2019-06-14 22:00:00 22 7 Sudeste 17 Sudoeste 0 -- -- 39
2019-06-14 21:00:00 25 4 Sur 15 Sudoeste 0 -- -- 32
2019-06-14 20:00:00 27.4 6 Sudoeste 18 Sudoeste 0 -- -- 28
2019-06-14 19:00:00 27.5 3 Sudoeste 18 Oeste 0 -- -- 29
2019-06-14 18:00:00 26.3 4 Sudoeste 16 Oeste 0 -- -- 35
2019-06-14 17:00:00 26.9 5 Oeste 19 Sudoeste 0 -- -- 33
2019-06-14 16:00:00 22.6 9 Sudoeste 37 Sur 0 -- -- 43
2019-06-14 15:00:00 22.9 15 Sudoeste 54 Sur 0 -- -- 37
2019-06-14 14:00:00 26.9 12 Sudoeste 26 Sudoeste 0 -- -- 31
2019-06-14 13:00:00 25.1 6 Sudoeste 15 Sur 0 -- -- 32
2019-06-14 12:00:00 23.3 5 Sur 14 Sudeste 0 -- -- 35
2019-06-14 11:00:00 23.4 4 Sudoeste 14 Este 0 -- -- 33
2019-06-14 10:00:00 20 3 Sudeste 17 Sudeste 0 -- -- 41
2019-06-14 09:00:00 15.6 6 Sudeste 17 Este 0 -- -- 58
2019-06-14 08:00:00 14.5 6 Noroeste 16 Norte 0 -- -- 58
2019-06-14 07:00:00 13.8 10 Sudeste 18 Sudeste 0 -- -- 61
2019-06-14 06:00:00 14.4 6 Norte 16 Noroeste 0 -- -- 55
2019-06-14 05:00:00 14.4 4 Norte 9 Nordeste 0 -- -- 54
2019-06-14 04:00:00 14.4 3 Nordeste 9 Nordeste 0 -- -- 52
2019-06-14 03:00:00 13.7 3 Este 6 Este 0 -- -- 56
2019-06-14 02:00:00 14.4 2 Oeste 6 Oeste 0 -- -- 54
2019-06-14 01:00:00 15.8 3 Noroeste 9 Este 0 -- -- 45
2019-06-14 00:00:00 15.8 3 Nordeste 6 Este 0 -- -- 44
2019-06-13 23:00:00 17.9 2 Este 12 Nordeste 0 -- -- 38
2019-06-13 22:00:00 19.6 5 Este 22 Este 0 -- -- 31
2019-06-13 21:00:00 21.4 10 Sudeste 19 Sudeste 0 -- -- 29
2019-06-13 20:00:00 22.9 8 Sudeste 18 Sur 0 -- -- 30
2019-06-13 19:00:00 22.8 12 Sudoeste 26 Sudoeste 0 -- -- 34
2019-06-13 18:00:00 24.8 12 Sudeste 29 Sur 0 -- -- 22
2019-06-13 17:00:00 27.7 10 Sudeste 25 Sudeste 0 -- -- 21
2019-06-13 16:00:00 26.7 7 Este 31 Sudeste 0 -- -- 23
2019-06-13 15:00:00 26.4 11 Oeste 18 Noroeste 0 -- -- 24
2019-06-13 14:00:00 24.4 7 Noroeste 19 Oeste 0 -- -- 30
2019-06-13 13:00:00 24.6 8 Norte 20 Noroeste 0 -- -- 29
2019-06-13 12:00:00 22.3 8 Noroeste 15 Noroeste 0 -- -- 33
2019-06-13 11:00:00 19.2 4 Noroeste 12 Noroeste 0 -- -- 35
2019-06-13 10:00:00 16.7 5 Noroeste 9 Oeste 0 -- -- 44
2019-06-13 09:00:00 13 2 Noroeste 4 Noroeste 0 -- -- 57
2019-06-13 08:00:00 7.7 0 Calma 5 Este 0 -- -- 81
2019-06-13 07:00:00 7.1 4 Nordeste 5 Nordeste 0 -- -- 79
2019-06-13 06:00:00 7.4 3 Este 5 Este 0 -- -- 77
2019-06-13 05:00:00 8.2 4 Norte 6 Norte 0 -- -- 73
2019-06-13 04:00:00 8.9 6 Este 8 Este 0 -- -- 70
2019-06-13 03:00:00 9.3 0 Calma 6 Norte 0 -- -- 69
2019-06-13 02:00:00 10.5 3 Noroeste 9 Norte 0 -- -- 63
2019-06-13 01:00:00 11 3 Sudeste 6 Este 0 -- -- 58
2019-06-13 00:00:00 12.6 2 Nordeste 10 Sudoeste 0 -- -- 51
2019-06-12 23:00:00 14.4 0 Calma 17 Este 0 -- -- 40
2019-06-12 22:00:00 16.4 5 Sudeste 22 Sudoeste 0 -- -- 34
2019-06-12 21:00:00 19.7 8 Sudoeste 18 Sudoeste 0 -- -- 24
2019-06-12 20:00:00 22.4 6 Oeste 23 Oeste 0 -- -- 18
2019-06-12 19:00:00 22.4 13 Noroeste 25 Noroeste 0 -- -- 16
2019-06-12 18:00:00 22.8 5 Norte 19 Oeste 0 -- -- 19
2019-06-12 17:00:00 21.8 9 Sudoeste 20 Sur 0 -- -- 26
2019-06-12 16:00:00 21 10 Sur 22 Sudoeste 0 -- -- 31
2019-06-12 15:00:00 20.2 10 Sudoeste 30 Oeste 0 -- -- 31
2019-06-12 14:00:00 20.7 12 Sudoeste 23 Oeste 0 -- -- 34
2019-06-12 13:00:00 19.1 12 Sudoeste 23 Sur 0 -- -- 38
2019-06-12 12:00:00 17.6 11 Sudoeste 26 Oeste 0 -- -- 42
2019-06-12 11:00:00 15.5 3 Sudoeste 8 Sur 0 -- -- 53
2019-06-12 10:00:00 11.9 3 Noroeste 6 Oeste 0 -- -- 71
2019-06-12 09:00:00 7.4 0 Calma 6 Oeste 0.2 -- -- 94
2019-06-12 08:00:00 4.9 0 Calma 4 Norte 0 -- -- 91
2019-06-12 07:00:00 4.3 0 Calma 5 Norte 0 -- -- 89
2019-06-12 06:00:00 4.6 2 Este 3 Sudeste 0 -- -- 88
2019-06-12 05:00:00 5.2 0 Calma 3 Sur 0 -- -- 88
2019-06-12 04:00:00 6 3 Norte 5 Norte 0 -- -- 88
2019-06-12 03:00:00 6.1 0 Calma 4 Este 0 -- -- 88
2019-06-12 02:00:00 6.5 2 Este 5 Este 0 -- -- 86
2019-06-12 01:00:00 7.4 3 Noroeste 6 Este 0 -- -- 83
2019-06-12 00:00:00 8.2 3 Nordeste 8 Sudeste 0 -- -- 80
2019-06-11 23:00:00 9.4 4 Este 14 Nordeste 0 -- -- 73
2019-06-11 22:00:00 11.5 10 Nordeste 20 Este 0 -- -- 61
2019-06-11 21:00:00 12.1 6 Nordeste 16 Norte 0 -- -- 63
2019-06-11 20:00:00 14.6 10 Norte 17 Norte 0 -- -- 56
2019-06-11 19:00:00 15 0 Calma 15 Sudoeste 0 -- -- 55
2019-06-11 18:00:00 16.7 12 Sudoeste 24 Sudoeste 0 -- -- 54
2019-06-11 17:00:00 15.4 12 Sudoeste 24 Sudoeste 0 -- -- 67
2019-06-11 16:00:00 13.9 7 Sudoeste 17 Sudoeste 0 -- -- 74
2019-06-11 15:00:00 12.4 6 Sudoeste 18 Sudoeste 0.2 -- -- 78
2019-06-11 14:00:00 12.8 3 Sudoeste 9 Sudoeste 0.2 -- -- 79
2019-06-11 13:00:00 12.1 3 Sudoeste 6 Sur 1.6 -- -- 83
2019-06-11 12:00:00 11.1 2 Sudeste 6 Sur 2.8 -- -- 85
2019-06-11 11:00:00 10.4 3 Sur 23 Sudoeste 3 -- -- 83
2019-06-11 10:00:00 10.7 5 Sur 19 Sudoeste 1.4 -- -- 81
2019-06-11 09:00:00 10.8 5 Sudoeste 10 Sudoeste 0.4 -- -- 79
2019-06-11 08:00:00 11.3 2 Sur 4 Sudeste 0.2 -- -- 76
2019-06-11 07:00:00 11.4 0 Calma 11 Nordeste 1.6 -- -- 77
2019-06-11 06:00:00 12 6 Nordeste 12 Nordeste 0.6 -- -- 68
2019-06-11 05:00:00 13.2 0 Calma 6 Este 0 -- -- 57
2019-06-11 04:00:00 14.3 2 Este 16 Norte 0 -- -- 54
2019-06-11 03:00:00 15.6 4 Nordeste 15 Sudoeste 0 -- -- 34
2019-06-11 02:00:00 15.9 6 Este 24 Noroeste 0 -- -- 32
2019-06-11 01:00:00 17 13 Sur 35 Sudoeste 0 -- -- 27
2019-06-11 00:00:00 17.8 18 Sudoeste 35 Sudoeste 0 -- -- 25
2019-06-10 23:00:00 19 12 Sudoeste 26 Sur 0 -- -- 22
2019-06-10 22:00:00 19.4 3 Sudeste 12 Oeste 0 -- -- 20
2019-06-10 21:00:00 20.5 3 Norte 27 Oeste 0 -- -- 17
2019-06-10 20:00:00 23.8 13 Noroeste 29 Oeste 0 -- -- 13
2019-06-10 19:00:00 25.6 17 Oeste 35 Oeste 0 -- -- 16
2019-06-10 18:00:00 25.9 19 Oeste 33 Oeste 0 -- -- 22
2019-06-10 17:00:00 27.6 15 Oeste 32 Sudoeste 0 -- -- 22
2019-06-10 16:00:00 24.6 14 Sur 32 Sudoeste 0 -- -- 29
2019-06-10 15:00:00 26.1 15 Sudoeste 35 Sudoeste 0 -- -- 29
2019-06-10 14:00:00 23.7 23 Sudoeste 40 Sudoeste 0 -- -- 32
2019-06-10 13:00:00 22.8 22 Sudoeste 41 Sudoeste 0 -- -- 36
2019-06-10 12:00:00 21.3 22 Sudoeste 40 Sudoeste 0 -- -- 41
2019-06-10 11:00:00 20.3 15 Sudoeste 35 Sudoeste 0 -- -- 39
2019-06-10 10:00:00 18.4 10 Sudoeste 25 Sudoeste 0 -- -- 43
2019-06-10 09:00:00 15.3 9 Sudoeste 18 Sudoeste 0 -- -- 50
2019-06-10 08:00:00 14.8 5 Sudeste 14 Oeste 0 -- -- 46
2019-06-10 07:00:00 14 5 Sudeste 13 Sudoeste 0 -- -- 44
2019-06-10 06:00:00 13.3 3 Este 6 Norte 0 -- -- 48
2019-06-10 05:00:00 14.1 4 Este 9 Sudeste 0 -- -- 48
2019-06-10 04:00:00 14.5 2 Sudeste 5 Este 0 -- -- 48
2019-06-10 03:00:00 16.7 2 Sudeste 11 Sudeste 0 -- -- 39
2019-06-10 02:00:00 17.5 4 Sudeste 12 Sudeste 0 -- -- 38
2019-06-10 01:00:00 18.8 5 Este 13 Nordeste 0 -- -- 35
2019-06-10 00:00:00 20.9 5 Norte 27 Sur 0 -- -- 28
2019-06-09 23:00:00 21.9 8 Sur 20 Este 0 -- -- 26
2019-06-09 22:00:00 22.4 10 Sudeste 23 Sudoeste 0 -- -- 26
2019-06-09 21:00:00 23.9 11 Sur 29 Sudoeste 0 -- -- 23
2019-06-09 20:00:00 25.9 13 Sur 27 Sur 0 -- -- 20
2019-06-09 19:00:00 30.2 9 Sudoeste 17 Sudoeste 0 -- -- 16
2019-06-09 18:00:00 29.7 5 Sudoeste 12 Sur 0 -- -- 19
2019-06-09 17:00:00 30.1 6 Oeste 14 Oeste 0 -- -- 17
2019-06-09 16:00:00 29 7 Sudoeste 21 Oeste 0 -- -- 18
2019-06-09 15:00:00 28.2 12 Sudoeste 24 Sudoeste 0 -- -- 20
2019-06-09 14:00:00 26.9 10 Sudoeste 24 Sudoeste 0 -- -- 21
2019-06-09 13:00:00 26.8 12 Sudoeste 25 Oeste 0 -- -- 22
2019-06-09 12:00:00 25.6 4 Oeste 12 Noroeste 0 -- -- 27
2019-06-09 11:00:00 22.3 4 Sudoeste 16 Oeste 0 -- -- 38
2019-06-09 10:00:00 20.5 11 Oeste 18 Oeste 0 -- -- 42
2019-06-09 09:00:00 16.3 5 Sudeste 12 Sudeste 0 -- -- 56
2019-06-09 08:00:00 14.7 4 Noroeste 10 Nordeste 0 -- -- 55
2019-06-09 07:00:00 14.4 2 Sudeste 11 Noroeste 0 -- -- 57
2019-06-09 06:00:00 15.1 6 Norte 12 Este 0 -- -- 52
2019-06-09 05:00:00 14.8 0 Calma 4 Este 0 -- -- 53
2019-06-09 04:00:00 14.8 2 Nordeste 8 Norte 0 -- -- 51
2019-06-09 03:00:00 14.4 2 Nordeste 9 Noroeste 0 -- -- 52
2019-06-09 02:00:00 15.4 4 Nordeste 11 Nordeste 0 -- -- 45
2019-06-09 01:00:00 16.7 5 Nordeste 14 Este 0 -- -- 43
2019-06-09 00:00:00 17.7 6 Este 14 Este 0 -- -- 40
2019-06-08 23:00:00 18.9 8 Este 22 Este 0 -- -- 38
2019-06-08 22:00:00 19.9 6 Sur 19 Sudoeste 0 -- -- 39
2019-06-08 21:00:00 21.5 5 Sudeste 24 Sudoeste 0 -- -- 35
2019-06-08 20:00:00 22.9 8 Sudoeste 28 Sur 0 -- -- 34
2019-06-08 19:00:00 26.3 14 Sudoeste 31 Sudoeste 0 -- -- 26
2019-06-08 18:00:00 27.9 11 Sur 31 Sudoeste 0 -- -- 20
2019-06-08 17:00:00 27.9 19 Sudoeste 33 Sudoeste 0 -- -- 20
2019-06-08 16:00:00 28.4 16 Sudoeste 27 Sudoeste 0 -- -- 22
2019-06-08 15:00:00 27.6 7 Sudoeste 18 Oeste 0 -- -- 17
2019-06-08 14:00:00 26.3 8 Oeste 17 Noroeste 0 -- -- 19
2019-06-08 13:00:00 24.3 9 Noroeste 18 Noroeste 0 -- -- 17
2019-06-08 12:00:00 22.4 4 Norte 10 Noroeste 0 -- -- 21
2019-06-08 11:00:00 20.1 3 Sudoeste 8 Sudoeste 0 -- -- 30
2019-06-08 10:00:00 16.8 3 Sudoeste 6 Oeste 0 -- -- 37
2019-06-08 09:00:00 12.5 3 Oeste 5 Oeste 0 -- -- 45
2019-06-08 08:00:00 7 0 Calma 4 Nordeste 0 -- -- 62
2019-06-08 07:00:00 6.7 0 Calma 4 Este 0 -- -- 60
2019-06-08 06:00:00 6.8 0 Calma 6 Este 0 -- -- 59
2019-06-08 05:00:00 7.4 0 Calma 4 Este 0 -- -- 55
2019-06-08 04:00:00 8.9 3 Norte 7 Nordeste 0 -- -- 49
2019-06-08 03:00:00 9.5 4 Este 8 Este 0 -- -- 46
2019-06-08 02:00:00 9.8 0 Calma 8 Norte 0 -- -- 46
2019-06-08 01:00:00 12.5 5 Nordeste 11 Norte 0 -- -- 34
2019-06-08 00:00:00 13.9 6 Nordeste 12 Norte 0 -- -- 30
2019-06-07 23:00:00 15.2 0 Calma 10 Nordeste 0 -- -- 30
2019-06-07 22:00:00 16.4 5 Este 13 Noroeste 0 -- -- 30
2019-06-07 21:00:00 21 6 Noroeste 20 Oeste 0 -- -- 24
2019-06-07 20:00:00 23.3 12 Oeste 24 Oeste 0 -- -- 18
2019-06-07 19:00:00 24.6 14 Oeste 25 Oeste 0 -- -- 16
2019-06-07 18:00:00 25 15 Oeste 29 Noroeste 0 -- -- 13
2019-06-07 17:00:00 24.9 17 Oeste 32 Oeste 0 -- -- 10
2019-06-07 16:00:00 24.2 18 Noroeste 34 Noroeste 0 -- -- 14
2019-06-07 15:00:00 24.2 9 Sudoeste 44 Oeste 0 -- -- 16
2019-06-07 14:00:00 22.5 9 Sudoeste 25 Sudoeste 0 -- -- 28
2019-06-07 13:00:00 20.3 6 Oeste 31 Noroeste 0 -- -- 39
2019-06-07 12:00:00 19.7 21 Oeste 35 Oeste 0 -- -- 42
2019-06-07 11:00:00 18.3 15 Oeste 31 Sudoeste 0 -- -- 51
2019-06-07 10:00:00 19.8 7 Norte 13 Nordeste 0 -- -- 46
2019-06-07 09:00:00 16.4 4 Noroeste 9 Norte 0 -- -- 52
2019-06-07 08:00:00 11.9 0 Calma 5 Este 0 -- -- 72
2019-06-07 07:00:00 11.6 6 Este 11 Este 0 -- -- 69
2019-06-07 06:00:00 12.1 0 Calma 13 Nordeste 0 -- -- 63
2019-06-07 05:00:00 13.1 5 Norte 27 Este 0 -- -- 59
2019-06-07 04:00:00 14.5 14 Este 26 Este 0 -- -- 56
2019-06-07 03:00:00 13.5 6 Este 16 Este 0 -- -- 57
2019-06-07 02:00:00 13 4 Nordeste 13 Noroeste 0 -- -- 51
2019-06-07 01:00:00 15.4 4 Sur 20 Sudeste 0 -- -- 43
2019-06-07 00:00:00 16 13 Este 33 Este 0 -- -- 42
2019-06-06 23:00:00 16.8 16 Este 32 Este 0 -- -- 42
2019-06-06 22:00:00 17.4 14 Sudeste 32 Este 0 -- -- 40
2019-06-06 21:00:00 18.6 11 Sudeste 31 Sudeste 0 -- -- 35
2019-06-06 20:00:00 20.5 8 Sudeste 30 Sur 0 -- -- 33
2019-06-06 19:00:00 20.3 13 Sur 29 Sudoeste 0 -- -- 36
2019-06-06 18:00:00 21.1 11 Sudoeste 28 Sur 0 -- -- 36
2019-06-06 17:00:00 22.8 9 Sudeste 32 Sudeste 0 -- -- 32
2019-06-06 16:00:00 24.7 15 Sudoeste 37 Oeste 0 -- -- 26
2019-06-06 15:00:00 25.4 14 Sudoeste 34 Oeste 0 -- -- 20
2019-06-06 14:00:00 23.8 18 Sudoeste 35 Sudoeste 0 -- -- 23
2019-06-06 13:00:00 24.1 14 Sudoeste 33 Sudoeste 0 -- -- 25
2019-06-06 12:00:00 22.1 12 Oeste 23 Oeste 0 -- -- 32
2019-06-06 11:00:00 18.8 4 Oeste 12 Oeste 0 -- -- 37
2019-06-06 10:00:00 16.1 5 Oeste 8 Oeste 0 -- -- 48
2019-06-06 09:00:00 12.9 3 Oeste 5 Oeste 0 -- -- 64
2019-06-06 08:00:00 7.8 0 Calma 3 Nordeste 0 -- -- 79
2019-06-06 07:00:00 7.4 0 Calma 3 Nordeste 0 -- -- 79
2019-06-06 06:00:00 7.6 0 Calma 4 Este 0 -- -- 78
2019-06-06 05:00:00 7.9 0 Calma 4 Nordeste 0 -- -- 75
2019-06-06 04:00:00 8.8 0 Calma 4 Norte 0 -- -- 72
2019-06-06 03:00:00 9.8 0 Calma 9 Este 0 -- -- 64
2019-06-06 02:00:00 10.7 0 Calma 10 Norte 0 -- -- 61
2019-06-06 01:00:00 11.9 0 Calma 11 Este 0 -- -- 55
2019-06-06 00:00:00 12.8 8 Este 10 Oeste 0 -- -- 56
2019-06-05 23:00:00 14.3 4 Norte 14 Oeste 0 -- -- 52
2019-06-05 22:00:00 15.6 3 Norte 12 Noroeste 0 -- -- 47
2019-06-05 21:00:00 19.1 11 Noroeste 21 Noroeste 0 -- -- 35
2019-06-05 20:00:00 20.9 9 Noroeste 20 Oeste 0 -- -- 33
2019-06-05 19:00:00 22.5 13 Oeste 27 Oeste 0 -- -- 28
2019-06-05 18:00:00 22.5 15 Oeste 30 Oeste 0 -- -- 29
2019-06-05 17:00:00 22.4 18 Oeste 39 Oeste 0 -- -- 34
2019-06-05 16:00:00 20.5 12 Sudoeste 22 Oeste 0 -- -- 47
2019-06-05 15:00:00 18.9 8 Oeste 18 Oeste 0 -- -- 56
2019-06-05 14:00:00 16.8 8 Sudoeste 20 Sur 0 -- -- 70
2019-06-05 13:00:00 16.6 10 Sudoeste 35 Sudoeste 0.8 -- -- 81
2019-06-05 12:00:00 15.9 8 Sur 36 Sudoeste 0.6 -- -- 75
2019-06-05 11:00:00 19.5 15 Sudoeste 38 Sudoeste 0 -- -- 51
2019-06-05 10:00:00 20.7 17 Sudoeste 34 Sudoeste 0 -- -- 39
2019-06-05 09:00:00 20 4 Oeste 14 Sudoeste 0 -- -- 35
2019-06-05 08:00:00 17 2 Noroeste 8 Nordeste 0 -- -- 38
2019-06-05 07:00:00 15.9 0 Calma 8 Sur 0 -- -- 38
2019-06-05 06:00:00 15.3 3 Nordeste 7 Este 0 -- -- 36
2019-06-05 05:00:00 15.7 3 Sudeste 14 Sur 0 -- -- 32
2019-06-05 04:00:00 16.8 4 Sudeste 25 Sudeste 0 -- -- 29
2019-06-05 03:00:00 20.2 13 Sudeste 40 Este 0 -- -- 21
2019-06-05 02:00:00 20.5 21 Este 36 Sudeste 0 -- -- 20
2019-06-05 01:00:00 20.7 12 Este 39 Este 0 -- -- 19
2019-06-05 00:00:00 21.3 22 Sudeste 42 Este 0 -- -- 18
2019-06-04 23:00:00 22 19 Este 37 Sudeste 0 -- -- 21
2019-06-04 22:00:00 22.3 15 Este 30 Este 0 -- -- 25
2019-06-04 21:00:00 23.8 5 Nordeste 24 Sur 0 -- -- 28
2019-06-04 20:00:00 25.4 16 Sudeste 43 Sur 0 -- -- 22
2019-06-04 19:00:00 28.1 18 Sudeste 39 Sudeste 0 -- -- 20
2019-06-04 18:00:00 30.2 15 Sudeste 32 Sudeste 0 -- -- 19
2019-06-04 17:00:00 32.4 8 Sur 22 Sur 0 -- -- 16
2019-06-04 16:00:00 31.1 10 Sur 24 Sudeste 0 -- -- 19
2019-06-04 15:00:00 31.2 5 Sur 22 Sudeste 0 -- -- 18
2019-06-04 14:00:00 30.7 6 Sudeste 23 Oeste 0 -- -- 18
2019-06-04 13:00:00 29.8 10 Oeste 24 Oeste 0 -- -- 19
2019-06-04 12:00:00 26.7 3 Noroeste 9 Oeste 0 -- -- 23
2019-06-04 11:00:00 24.1 5 Oeste 13 Oeste 0 -- -- 35
2019-06-04 10:00:00 20.7 3 Sudoeste 6 Noroeste 0 -- -- 42
2019-06-04 09:00:00 18.1 0 Calma 5 Oeste 0 -- -- 50
2019-06-04 08:00:00 13.2 0 Calma 4 Norte 0 -- -- 62
2019-06-04 07:00:00 12.8 4 Norte 5 Norte 0 -- -- 61
2019-06-04 06:00:00 12.4 0 Calma 5 Este 0 -- -- 61
2019-06-04 05:00:00 13.1 4 Sudeste 6 Este 0 -- -- 58
2019-06-04 04:00:00 14 3 Nordeste 8 Nordeste 0 -- -- 53
2019-06-04 03:00:00 14.7 3 Nordeste 9 Este 0 -- -- 49
2019-06-04 02:00:00 15.8 5 Norte 8 Este 0 -- -- 46
2019-06-04 01:00:00 17.5 3 Norte 10 Norte 0 -- -- 41
2019-06-04 00:00:00 20.4 4 Este 16 Sudeste 0 -- -- 29
2019-06-03 23:00:00 22.5 14 Este 30 Este 0 -- -- 25
2019-06-03 22:00:00 22.8 6 Sudeste 13 Este 0 -- -- 26
2019-06-03 21:00:00 25.3 6 Este 21 Sudoeste 0 -- -- 24
2019-06-03 20:00:00 27.7 13 Sudoeste 25 Sudoeste 0 -- -- 21
2019-06-03 19:00:00 29.4 13 Sur 33 Oeste 0 -- -- 19
2019-06-03 18:00:00 31.7 13 Sudoeste 23 Sudoeste 0 -- -- 18
2019-06-03 17:00:00 32.2 10 Sudoeste 28 Sudoeste 0 -- -- 17
2019-06-03 16:00:00 31.6 13 Sudoeste 29 Oeste 0 -- -- 17
2019-06-03 15:00:00 31.9 13 Sudoeste 28 Sudoeste 0 -- -- 15
2019-06-03 14:00:00 30 5 Sudoeste 16 Sur 0 -- -- 22
2019-06-03 13:00:00 27.7 8 Noroeste 13 Este 0 -- -- 32
2019-06-03 12:00:00 26.8 6 Norte 15 Noroeste 0 -- -- 34
2019-06-03 11:00:00 24.2 5 Norte 9 Norte 0 -- -- 39
2019-06-03 10:00:00 22.1 3 Sur 10 Oeste 0 -- -- 46
2019-06-03 09:00:00 17.6 3 Noroeste 20 Sudeste 0 -- -- 58
2019-06-03 08:00:00 15.7 10 Sudeste 23 Norte 0 -- -- 61
2019-06-03 07:00:00 15.6 8 Este 15 Este 0 -- -- 64
2019-06-03 06:00:00 14.3 4 Sudeste 6 Sudeste 0 -- -- 60
2019-06-03 05:00:00 14.4 3 Este 6 Norte 0 -- -- 59
2019-06-03 04:00:00 16.3 6 Norte 9 Norte 0 -- -- 49
2019-06-03 03:00:00 17.5 4 Nordeste 8 Este 0 -- -- 46
2019-06-03 02:00:00 17.9 6 Este 9 Nordeste 0 -- -- 42
2019-06-03 01:00:00 18.7 2 Este 9 Este 0 -- -- 40
2019-06-03 00:00:00 19.7 4 Este 6 Nordeste 0 -- -- 39
2019-06-02 23:00:00 21.3 4 Norte 15 Sur 0 -- -- 34
2019-06-02 22:00:00 24.5 9 Sur 28 Sudoeste 0 -- -- 25
2019-06-02 21:00:00 26.5 14 Sudoeste 37 Sudoeste 0 -- -- 24
2019-06-02 20:00:00 29.2 19 Sudoeste 33 Oeste 0 -- -- 22
2019-06-02 19:00:00 29.5 14 Sudoeste 33 Sudoeste 0 -- -- 18
2019-06-02 18:00:00 32 18 Sudoeste 30 Sudoeste 0 -- -- 16
2019-06-02 17:00:00 32.3 17 Sudoeste 32 Sudoeste 0 -- -- 17
2019-06-02 16:00:00 32 18 Sudoeste 33 Sudoeste 0 -- -- 18
2019-06-02 15:00:00 32.1 14 Sudoeste 28 Sudoeste 0 -- -- 20
2019-06-02 14:00:00 31.5 11 Sudoeste 21 Sudoeste 0 -- -- 24
2019-06-02 13:00:00 30 5 Sur 14 Sudoeste 0 -- -- 26
2019-06-02 12:00:00 27.7 5 Sudoeste 10 Sudoeste 0 -- -- 35
2019-06-02 11:00:00 24.5 3 Sudoeste 12 Oeste 0 -- -- 41
2019-06-02 10:00:00 21.6 3 Oeste 6 Oeste 0 -- -- 45
2019-06-02 09:00:00 18 2 Oeste 4 Oeste 0 -- -- 56
2019-06-02 08:00:00 12.6 2 Norte 3 Norte 0 -- -- 74
2019-06-02 07:00:00 12 0 Calma 4 Este 0 -- -- 73
2019-06-02 06:00:00 12.1 0 Calma 2 Este 0 -- -- 70
2019-06-02 05:00:00 13.7 0 Calma 5 Noroeste 0 -- -- 63
2019-06-02 04:00:00 14.5 0 Calma 6 Nordeste 0 -- -- 59
2019-06-02 03:00:00 15.8 2 Nordeste 6 Este 0 -- -- 54
2019-06-02 02:00:00 16.5 3 Este 5 Este 0 -- -- 51
2019-06-02 01:00:00 18.4 3 Este 8 Este 0 -- -- 44
2019-06-02 00:00:00 20.7 5 Sur 19 Sudoeste 0 -- -- 36
2019-06-01 23:00:00 22.3 10 Sur 31 Sudoeste 0 -- -- 31
2019-06-01 22:00:00 23.7 16 Sudoeste 38 Sudoeste 0 -- -- 30
2019-06-01 21:00:00 25.6 20 Sudoeste 33 Sudoeste 0 -- -- 28
2019-06-01 20:00:00 27.9 16 Sudoeste 28 Sudoeste 0 -- -- 23
2019-06-01 19:00:00 29.4 14 Sudoeste 28 Sur 0 -- -- 22
2019-06-01 18:00:00 30.7 17 Sudoeste 27 Sudoeste 0 -- -- 20
2019-06-01 17:00:00 31.3 15 Sudoeste 27 Sudoeste 0 -- -- 19
2019-06-01 16:00:00 31.5 13 Sudoeste 23 Sudoeste 0 -- -- 20
2019-06-01 15:00:00 30.4 5 Sudoeste 21 Oeste 0 -- -- 22
2019-06-01 14:00:00 28.9 6 Noroeste 15 Oeste 0 -- -- 24
2019-06-01 13:00:00 28.8 5 Sudoeste 13 Oeste 0 -- -- 24
2019-06-01 12:00:00 26.1 6 Oeste 12 Oeste 0 -- -- 33
2019-06-01 11:00:00 23.2 3 Sudoeste 8 Oeste 0 -- -- 40
2019-06-01 10:00:00 20 2 Oeste 8 Noroeste 0 -- -- 48
2019-06-01 09:00:00 16.4 2 Oeste 5 Oeste 0 -- -- 63
2019-06-01 08:00:00 11.9 0 Calma 4 Nordeste 0 -- -- 79
2019-06-01 07:00:00 11.3 0 Calma 4 Este 0 -- -- 77
2019-06-01 06:00:00 11.9 0 Calma 6 Norte 0 -- -- 73
2019-06-01 05:00:00 12.6 2 Norte 5 Este 0 -- -- 70
2019-06-01 04:00:00 12.9 0 Calma 8 Norte 0 -- -- 69
2019-06-01 03:00:00 14.4 3 Nordeste 7 Norte 0 -- -- 62
2019-06-01 02:00:00 14.9 2 Nordeste 8 Nordeste 0 -- -- 60
2019-06-01 01:00:00 16.1 5 Este 7 Este 0 -- -- 56
2019-06-01 00:00:00 19.1 3 Sur 15 Sur 0 -- -- 45
2019-05-31 23:00:00 20.6 5 Sur 31 Sudoeste 0 -- -- 40
2019-05-31 22:00:00 21.9 17 Sudoeste 33 Sudoeste 0 -- -- 37
2019-05-31 21:00:00 23.7 15 Sudoeste 32 Sudoeste 0 -- -- 33
2019-05-31 20:00:00 26.2 15 Sudoeste 30 Sudoeste 0 -- -- 22
2019-05-31 19:00:00 27.5 18 Sudoeste 30 Sudoeste 0 -- -- 22
2019-05-31 18:00:00 28.7 16 Sudoeste 29 Sudoeste 0 -- -- 21
2019-05-31 17:00:00 29.3 15 Sudoeste 29 Sudoeste 0 -- -- 22
2019-05-31 16:00:00 29.2 15 Sudoeste 27 Oeste 0 -- -- 23
2019-05-31 15:00:00 28.9 13 Sudoeste 25 Sudoeste 0 -- -- 23
2019-05-31 14:00:00 27.7 15 Sudoeste 27 Oeste 0 -- -- 26
2019-05-31 13:00:00 26.2 10 Sudoeste 22 Sudoeste 0 -- -- 29
2019-05-31 12:00:00 24.4 5 Sudoeste 12 Oeste 0 -- -- 34
2019-05-31 11:00:00 21.6 5 Oeste 9 Oeste 0 -- -- 40
2019-05-31 10:00:00 18.8 4 Sudoeste 6 Noroeste 0 -- -- 48
2019-05-31 09:00:00 14.6 3 Oeste 5 Oeste 0 -- -- 65
2019-05-31 08:00:00 10.3 0 Calma 5 Nordeste 0 -- -- 80
2019-05-31 07:00:00 9.7 0 Calma 4 Sudoeste 0 -- -- 80
2019-05-31 06:00:00 10 3 Este 4 Norte 0 -- -- 79
2019-05-31 05:00:00 11.1 0 Calma 6 Este 0 -- -- 74
2019-05-31 04:00:00 11.9 3 Este 9 Norte 0 -- -- 71
2019-05-31 03:00:00 13.2 0 Calma 8 Este 0 -- -- 65
2019-05-31 02:00:00 14.1 0 Calma 8 Este 0 -- -- 63
2019-05-31 01:00:00 15.1 4 Norte 9 Este 0 -- -- 56
2019-05-31 00:00:00 17.9 6 Sudoeste 17 Sudoeste 0 -- -- 47
2019-05-30 23:00:00 18.9 2 Sudeste 12 Sudeste 0 -- -- 39
2019-05-30 22:00:00 21 5 Sudeste 25 Sudoeste 0 -- -- 32
2019-05-30 21:00:00 23.3 14 Sudoeste 31 Sudoeste 0 -- -- 27
2019-05-30 20:00:00 25.1 12 Sudoeste 31 Sudoeste 0 -- -- 27
2019-05-30 19:00:00 25.8 18 Sudoeste 36 Sudoeste 0 -- -- 27
2019-05-30 18:00:00 26.6 18 Sudoeste 34 Sudoeste 0 -- -- 25
2019-05-30 17:00:00 26.7 18 Sudoeste 37 Sudoeste 0 -- -- 26
2019-05-30 16:00:00 26.7 20 Sudoeste 36 Oeste 0 -- -- 28
2019-05-30 15:00:00 26.3 19 Sudoeste 33 Sudoeste 0 -- -- 30
2019-05-30 14:00:00 25.6 15 Sudoeste 32 Sudoeste 0 -- -- 30
2019-05-30 13:00:00 25 13 Sudoeste 23 Sudoeste 0 -- -- 30
2019-05-30 12:00:00 23.2 7 Sudoeste 14 Sudoeste 0 -- -- 30
2019-05-30 11:00:00 19.3 3 Oeste 9 Oeste 0 -- -- 37
2019-05-30 10:00:00 16.6 4 Noroeste 8 Noroeste 0 -- -- 46
2019-05-30 09:00:00 13.6 2 Oeste 4 Sudoeste 0 -- -- 55
2019-05-30 08:00:00 7.7 4 Sudeste 6 Norte 0 -- -- 70
2019-05-30 07:00:00 7.3 0 Calma 7 Este 0 -- -- 69
2019-05-30 06:00:00 7.4 0 Calma 5 Este 0 -- -- 68
2019-05-30 05:00:00 7.7 0 Calma 4 Este 0 -- -- 66
2019-05-30 04:00:00 8.6 0 Calma 4 Norte 0 -- -- 61
2019-05-30 03:00:00 10.5 0 Calma 9 Este 0 -- -- 50
2019-05-30 02:00:00 11.5 2 Sudeste 13 Este 0 -- -- 49
2019-05-30 01:00:00 12.7 9 Este 12 Este 0 -- -- 41
2019-05-30 00:00:00 13 8 Este 11 Este 0 -- -- 40
2019-05-29 23:00:00 13.5 4 Nordeste 8 Este 0 -- -- 41
2019-05-29 22:00:00 15.4 5 Nordeste 14 Nordeste 0 -- -- 34
2019-05-29 21:00:00 18.9 6 Noroeste 22 Norte 0 -- -- 25
2019-05-29 20:00:00 21.8 13 Norte 26 Norte 0 -- -- 20
2019-05-29 19:00:00 23.6 14 Norte 27 Norte 0 -- -- 19
2019-05-29 18:00:00 24.7 9 Norte 26 Norte 0 -- -- 15
2019-05-29 17:00:00 24.9 10 Nordeste 22 Nordeste 0 -- -- 14
2019-05-29 16:00:00 24.5 8 Noroeste 20 Norte 0 -- -- 16
2019-05-29 15:00:00 23.7 10 Norte 20 Norte 0 -- -- 18
2019-05-29 14:00:00 21.8 4 Sudeste 19 Noroeste 0 -- -- 22
2019-05-29 13:00:00 20.8 3 Este 15 Nordeste 0 -- -- 22
2019-05-29 12:00:00 19.9 5 Este 12 Este 0 -- -- 25
2019-05-29 11:00:00 19.1 4 Noroeste 14 Oeste 0 -- -- 27
2019-05-29 10:00:00 17.6 7 Oeste 12 Oeste 0 -- -- 37
2019-05-29 09:00:00 15.3 5 Este 10 Este 0 -- -- 38
2019-05-29 08:00:00 9.3 9 Este 11 Este 0 -- -- 54
2019-05-29 07:00:00 8.6 6 Este 11 Este 0 -- -- 56
2019-05-29 06:00:00 9.6 6 Este 10 Este 0 -- -- 52
2019-05-29 05:00:00 10 5 Sudeste 10 Este 0 -- -- 50
2019-05-29 04:00:00 9.9 6 Este 9 Este 0 -- -- 48
2019-05-29 03:00:00 10.1 5 Este 10 Este 0 -- -- 48
2019-05-29 02:00:00 10.6 3 Nordeste 10 Este 0 -- -- 44
2019-05-29 01:00:00 10.7 0 Calma 10 Este 0 -- -- 46
2019-05-29 00:00:00 13 6 Nordeste 13 Nordeste 0 -- -- 32
2019-05-28 23:00:00 14.1 5 Nordeste 13 Nordeste 0 -- -- 31
2019-05-28 22:00:00 16.7 6 Nordeste 21 Nordeste 0 -- -- 30
2019-05-28 21:00:00 18.7 15 Norte 21 Norte 0 -- -- 30
2019-05-28 20:00:00 20.6 4 Norte 17 Oeste 0 -- -- 36
2019-05-28 19:00:00 20.5 4 Sudoeste 23 Sudoeste 0 -- -- 32
2019-05-28 18:00:00 21 11 Sudoeste 30 Sudoeste 0 -- -- 29
2019-05-28 17:00:00 22.4 16 Sudoeste 30 Sudeste 0 -- -- 28
2019-05-28 16:00:00 23.2 15 Sur 33 Sur 0 -- -- 29
2019-05-28 15:00:00 22.7 19 Sudoeste 33 Sudoeste 0 -- -- 34
2019-05-28 14:00:00 21.6 16 Sudoeste 37 Sudoeste 0 -- -- 43
2019-05-28 13:00:00 20.8 17 Sudoeste 37 Sudoeste 0 -- -- 49
2019-05-28 12:00:00 19 21 Sudoeste 38 Sudoeste 0 -- -- 48
2019-05-28 11:00:00 17.7 17 Sudoeste 31 Sudoeste 0 -- -- 50
2019-05-28 10:00:00 16.5 12 Sudoeste 24 Sudoeste 0 -- -- 52
2019-05-28 09:00:00 15.4 6 Sudoeste 12 Sudoeste 0 -- -- 59
2019-05-28 08:00:00 11.8 0 Calma 5 Sudoeste 0 -- -- 86
2019-05-28 07:00:00 10.9 0 Calma 5 Este 0 -- -- 85
2019-05-28 06:00:00 11.3 3 Norte 5 Norte 0 -- -- 80
2019-05-28 05:00:00 12 3 Este 10 Este 0 -- -- 80
2019-05-28 04:00:00 12.6 2 Este 9 Sudeste 0 -- -- 74
2019-05-28 03:00:00 13.8 5 Norte 9 Norte 0 -- -- 69
2019-05-28 02:00:00 15.2 4 Norte 18 Este 0 -- -- 63
2019-05-28 01:00:00 16.1 4 Nordeste 12 Este 0 -- -- 59
2019-05-28 00:00:00 16.2 7 Este 12 Este 0 -- -- 60
2019-05-27 23:00:00 16.7 3 Nordeste 8 Este 0 -- -- 65
2019-05-27 22:00:00 17.7 5 Nordeste 11 Norte 0 -- -- 58
2019-05-27 21:00:00 21.7 4 Oeste 15 Sudoeste 0 -- -- 44
2019-05-27 20:00:00 21.7 10 Sudoeste 24 Sudoeste 0 -- -- 43
2019-05-27 19:00:00 23.8 7 Sudoeste 25 Sur 0 -- -- 38
2019-05-27 18:00:00 23.3 10 Sudoeste 31 Sudoeste 0 -- -- 35
2019-05-27 17:00:00 24.2 15 Sudoeste 32 Sudoeste 0 -- -- 34
2019-05-27 16:00:00 24.7 19 Sudoeste 35 Sudoeste 0 -- -- 33
2019-05-27 15:00:00 24.3 15 Sudoeste 30 Sudoeste 0 -- -- 37
2019-05-27 14:00:00 22.7 16 Sudoeste 31 Sudoeste 0 -- -- 40
2019-05-27 13:00:00 20.9 15 Sudoeste 32 Sudoeste 0 -- -- 45
2019-05-27 12:00:00 21.1 14 Sudoeste 27 Sudoeste 0 -- -- 43
2019-05-27 11:00:00 18.9 3 Sudoeste 13 Oeste 0 -- -- 43
2019-05-27 10:00:00 16.5 2 Noroeste 8 Sudoeste 0 -- -- 49
2019-05-27 09:00:00 12.7 3 Oeste 6 Sudoeste 0 -- -- 64
2019-05-27 08:00:00 7.8 0 Calma 6 Norte 0 -- -- 79
2019-05-27 07:00:00 7.8 0 Calma 4 Sur 0 -- -- 81
2019-05-27 06:00:00 7.9 3 Sudeste 8 Este 0 -- -- 79
2019-05-27 05:00:00 8.3 2 Norte 8 Nordeste 0 -- -- 71
2019-05-27 04:00:00 9.3 2 Este 6 Este 0 -- -- 65
2019-05-27 03:00:00 11 0 Calma 12 Este 0 -- -- 58
2019-05-27 02:00:00 12.1 3 Norte 9 Este 0 -- -- 52
2019-05-27 01:00:00 13.1 5 Este 12 Este 0 -- -- 47
2019-05-27 00:00:00 13.8 4 Nordeste 10 Este 0 -- -- 44
2019-05-26 23:00:00 14.6 7 Este 14 Este 0 -- -- 39
2019-05-26 22:00:00 16.1 4 Nordeste 13 Nordeste 0 -- -- 37
2019-05-26 21:00:00 19.1 6 Nordeste 14 Noroeste 0 -- -- 32
2019-05-26 20:00:00 21.9 8 Noroeste 22 Norte 0 -- -- 26
2019-05-26 19:00:00 21.6 9 Norte 21 Nordeste 0 -- -- 26
2019-05-26 18:00:00 22.9 8 Nordeste 19 Nordeste 0 -- -- 27
2019-05-26 17:00:00 24.3 10 Nordeste 28 Norte 0 -- -- 23
2019-05-26 16:00:00 25.4 9 Norte 22 Noroeste 0 -- -- 24
2019-05-26 15:00:00 24.6 7 Noroeste 23 Noroeste 0 -- -- 23
2019-05-26 14:00:00 23.1 10 Oeste 22 Sudoeste 0 -- -- 32
2019-05-26 13:00:00 23.7 12 Sudoeste 23 Sudoeste 0 -- -- 32
2019-05-26 12:00:00 22.2 9 Sudoeste 18 Sudoeste 0 -- -- 37
2019-05-26 11:00:00 20.5 4 Sur 13 Oeste 0 -- -- 34
2019-05-26 10:00:00 18.8 5 Sudeste 12 Sudeste 0 -- -- 41
2019-05-26 09:00:00 13.3 2 Oeste 5 Oeste 0 -- -- 70
2019-05-26 08:00:00 7.8 3 Norte 5 Norte 0 -- -- 84
2019-05-26 07:00:00 7.1 0 Calma 4 Oeste 0 -- -- 82
2019-05-26 06:00:00 7.9 0 Calma 4 Este 0 -- -- 78
2019-05-26 05:00:00 9.3 4 Este 7 Este 0 -- -- 69
2019-05-26 04:00:00 9.7 2 Este 8 Este 0 -- -- 69
2019-05-26 03:00:00 11.9 6 Nordeste 12 Este 0 -- -- 55
2019-05-26 02:00:00 12.4 8 Este 12 Este 0 -- -- 54
2019-05-26 01:00:00 12.5 8 Este 12 Este 0 -- -- 55
2019-05-26 00:00:00 13.4 8 Este 12 Este 0 -- -- 52
2019-05-25 23:00:00 13.6 5 Este 10 Nordeste 0 -- -- 53
2019-05-25 22:00:00 15.3 3 Norte 18 Norte 0 -- -- 54
2019-05-25 21:00:00 18.6 6 Norte 15 Noroeste 0 -- -- 38
2019-05-25 20:00:00 22.3 6 Oeste 15 Sudoeste 0 -- -- 38
2019-05-25 19:00:00 21.1 10 Sudoeste 17 Sudoeste 0 -- -- 43
2019-05-25 18:00:00 22.4 6 Sudoeste 25 Sudoeste 0 -- -- 40
2019-05-25 17:00:00 22.3 15 Sudoeste 38 Sudoeste 0 -- -- 50
2019-05-25 16:00:00 21.8 20 Sudoeste 38 Sur 0 -- -- 48
2019-05-25 15:00:00 22.2 19 Sudoeste 33 Sudoeste 0 -- -- 46
2019-05-25 14:00:00 22.7 19 Sudoeste 33 Sudoeste 0 -- -- 46
2019-05-25 13:00:00 21.5 11 Sudoeste 21 Sudoeste 0 -- -- 49
2019-05-25 12:00:00 21.3 3 Oeste 10 Sudoeste 0 -- -- 37
2019-05-25 11:00:00 20.2 2 Sur 8 Oeste 0 -- -- 47
2019-05-25 10:00:00 18.1 3 Noroeste 7 Oeste 0 -- -- 68
2019-05-25 09:00:00 13.9 2 Sudoeste 4 Oeste 0 -- -- 86
2019-05-25 08:00:00 12.7 0 Calma 2 Oeste 0 -- -- 89
2019-05-25 07:00:00 12.1 0 Calma 4 Noroeste 0 -- -- 89
2019-05-25 06:00:00 12 0 Calma 3 Oeste 0 -- -- 87
2019-05-25 05:00:00 12.2 0 Calma 4 Norte 0 -- -- 86
2019-05-25 04:00:00 12.3 2 Este 5 Este 0 -- -- 87
2019-05-25 03:00:00 12.4 2 Sudeste 6 Sur 0 -- -- 85
2019-05-25 02:00:00 12.8 2 Este 11 Sudeste 0 -- -- 83
2019-05-25 01:00:00 13.4 6 Sudeste 13 Sur 0 -- -- 77
2019-05-25 00:00:00 13.5 4 Sudeste 10 Sudeste 0 -- -- 78
2019-05-24 23:00:00 13.9 3 Sur 13 Sur 0 -- -- 75
2019-05-24 22:00:00 14.1 6 Sur 14 Sur 0 -- -- 73
2019-05-24 21:00:00 14.7 6 Sur 19 Sudoeste 0 -- -- 70
2019-05-24 20:00:00 15.4 5 Sur 16 Sur 0 -- -- 67
2019-05-24 19:00:00 16.2 2 Sur 4 Norte 0 -- -- 65
2019-05-24 18:00:00 16.1 3 Noroeste 10 Este 0 -- -- 66
2019-05-24 17:00:00 15.2 3 Este 16 Sudeste 0 -- -- 71
2019-05-24 16:00:00 15.3 4 Sudeste 8 Sudeste 0.2 -- -- 76
2019-05-24 15:00:00 15.6 0 Calma 4 Este 0.2 -- -- 74
2019-05-24 14:00:00 15.5 0 Calma 8 Sudeste 0 -- -- 69
2019-05-24 13:00:00 15.4 3 Sur 13 Oeste 0 -- -- 68
2019-05-24 12:00:00 14.7 5 Oeste 9 Oeste 0.2 -- -- 84
2019-05-24 11:00:00 14 3 Noroeste 6 Oeste 0.4 -- -- 85
2019-05-24 10:00:00 13.4 2 Norte 6 Noroeste 1.4 -- -- 86
2019-05-24 09:00:00 13.3 3 Noroeste 13 Nordeste 3.8 -- -- 86
2019-05-24 08:00:00 13.2 8 Nordeste 15 Nordeste 10.8 -- -- 86
2019-05-24 07:00:00 13.8 2 Sudeste 8 Sur 0.2 -- -- 84
2019-05-24 06:00:00 13.7 2 Este 12 Nordeste 0 -- -- 83
2019-05-24 05:00:00 14.1 6 Nordeste 8 Nordeste 0 -- -- 80
2019-05-24 04:00:00 15 2 Noroeste 10 Sudoeste 1.6 -- -- 75
2019-05-24 03:00:00 16.2 4 Nordeste 8 Este 0 -- -- 57
2019-05-24 02:00:00 16.3 5 Sudeste 9 Este 0 -- -- 56
2019-05-24 01:00:00 16.4 0 Calma 14 Nordeste 0 -- -- 55
2019-05-24 00:00:00 18 8 Norte 22 Norte 0 -- -- 49
2019-05-23 23:00:00 19.6 16 Norte 24 Norte 0 -- -- 43
2019-05-23 22:00:00 22.5 8 Oeste 30 Sur 0 -- -- 32
2019-05-23 21:00:00 23.4 17 Sudoeste 27 Sudoeste 0 -- -- 28
2019-05-23 20:00:00 24.7 3 Este 15 Oeste 0 -- -- 34
2019-05-23 19:00:00 27.4 10 Oeste 19 Oeste 0 -- -- 23
2019-05-23 18:00:00 25.7 9 Sudoeste 21 Sudoeste 0 -- -- 25
2019-05-23 17:00:00 26.8 12 Sudoeste 24 Sudoeste 0 -- -- 24
2019-05-23 16:00:00 29.1 10 Sudoeste 22 Sudoeste 0 -- -- 20
2019-05-23 15:00:00 27.4 9 Sudoeste 21 Oeste 0 -- -- 20
2019-05-23 14:00:00 27 3 Nordeste 17 Oeste 0 -- -- 20
2019-05-23 13:00:00 25.4 4 Nordeste 11 Norte 0 -- -- 21
2019-05-23 12:00:00 23 5 Sudoeste 12 Oeste 0 -- -- 25
2019-05-23 11:00:00 20 4 Sudoeste 8 Oeste 0 -- -- 34
2019-05-23 10:00:00 16.6 3 Sudoeste 6 Sudoeste 0 -- -- 46
2019-05-23 09:00:00 12.3 0 Calma 5 Noroeste 0 -- -- 56
2019-05-23 08:00:00 7.2 0 Calma 4 Norte 0 -- -- 70
2019-05-23 07:00:00 7 0 Calma 4 Sudeste 0 -- -- 65
2019-05-23 06:00:00 7.1 0 Calma 3 Este 0 -- -- 64
2019-05-23 05:00:00 8 0 Calma 5 Nordeste 0 -- -- 59
2019-05-23 04:00:00 8.2 3 Este 5 Norte 0 -- -- 57
2019-05-23 03:00:00 10 2 Este 8 Este 0 -- -- 48
2019-05-23 02:00:00 10.3 3 Nordeste 8 Norte 0 -- -- 49
2019-05-23 01:00:00 12.2 2 Nordeste 8 Nordeste 0 -- -- 40
2019-05-23 00:00:00 13.1 5 Norte 8 Norte 0 -- -- 38
2019-05-22 23:00:00 14.6 3 Nordeste 9 Oeste 0 -- -- 33
2019-05-22 22:00:00 17.9 2 Sur 16 Sudeste 0 -- -- 23
2019-05-22 21:00:00 20.5 5 Sudeste 22 Sudoeste 0 -- -- 21
2019-05-22 20:00:00 22.2 8 Sudoeste 22 Oeste 0 -- -- 19
2019-05-22 19:00:00 24.7 11 Sudoeste 27 Oeste 0 -- -- 17
2019-05-22 18:00:00 25.9 13 Sudoeste 26 Oeste 0 -- -- 17
2019-05-22 17:00:00 25.6 14 Sudoeste 30 Sudoeste 0 -- -- 18
2019-05-22 16:00:00 25.8 16 Sudoeste 29 Sudoeste 0 -- -- 19
2019-05-22 15:00:00 25.4 17 Sudoeste 29 Sudoeste 0 -- -- 26
2019-05-22 14:00:00 25.1 18 Oeste 30 Oeste 0 -- -- 31
2019-05-22 13:00:00 23.9 12 Sudoeste 26 Sur 0 -- -- 33
2019-05-22 12:00:00 22.7 7 Sudoeste 16 Oeste 0 -- -- 35
2019-05-22 11:00:00 19.6 4 Norte 12 Norte 0 -- -- 41
2019-05-22 10:00:00 17.2 0 Calma 9 Noroeste 0 -- -- 47
2019-05-22 09:00:00 14.2 0 Calma 6 Oeste 0 -- -- 63
2019-05-22 08:00:00 9.5 3 Nordeste 6 Nordeste 0 -- -- 77
2019-05-22 07:00:00 8.3 0 Calma 5 Este 0 -- -- 80
2019-05-22 06:00:00 9 2 Sudeste 8 Norte 0 -- -- 75
2019-05-22 05:00:00 10.7 4 Norte 8 Este 0 -- -- 69
2019-05-22 04:00:00 11.6 3 Este 6 Nordeste 0 -- -- 64
2019-05-22 03:00:00 13.6 0 Calma 7 Norte 0 -- -- 58
2019-05-22 02:00:00 15.5 4 Norte 15 Norte 0 -- -- 51
2019-05-22 01:00:00 16.6 11 Nordeste 32 Este 0 -- -- 46
2019-05-22 00:00:00 16.8 17 Este 39 Este 0 -- -- 46
2019-05-21 23:00:00 17.7 18 Este 39 Nordeste 0 -- -- 40
2019-05-21 22:00:00 18.8 9 Sur 22 Sudoeste 0 -- -- 18
2019-05-21 21:00:00 19.5 11 Sudoeste 25 Sur 0 -- -- 17
2019-05-21 20:00:00 22.1 13 Sudoeste 23 Sudoeste 0 -- -- 16
2019-05-21 19:00:00 23.3 10 Sur 25 Sudoeste 0 -- -- 15
2019-05-21 18:00:00 23.9 13 Sur 28 Oeste 0 -- -- 17
2019-05-21 17:00:00 24 15 Sur 33 Sudoeste 0 -- -- 18
2019-05-21 16:00:00 24 13 Sur 30 Sur 0 -- -- 19
2019-05-21 15:00:00 24.2 14 Sudoeste 24 Sudoeste 0 -- -- 23
2019-05-21 14:00:00 23.3 13 Sudoeste 28 Oeste 0 -- -- 28
2019-05-21 13:00:00 22.5 14 Sudoeste 28 Sudoeste 0 -- -- 29
2019-05-21 12:00:00 20.5 6 Sudoeste 14 Oeste 0 -- -- 35
2019-05-21 11:00:00 17.6 6 Oeste 12 Noroeste 0 -- -- 46
2019-05-21 10:00:00 14.9 4 Noroeste 8 Oeste 0 -- -- 54
2019-05-21 09:00:00 12 0 Calma 3 Noroeste 0 -- -- 68
2019-05-21 08:00:00 6.5 0 Calma 4 Norte 0 -- -- 88
2019-05-21 07:00:00 6.2 2 Sudeste 5 Noroeste 0 -- -- 84
2019-05-21 06:00:00 7 0 Calma 6 Nordeste 0 -- -- 83
2019-05-21 05:00:00 7.2 3 Norte 6 Este 0 -- -- 83
2019-05-21 04:00:00 7.3 0 Calma 4 Norte 0 -- -- 81
2019-05-21 03:00:00 8.7 3 Noroeste 5 Noroeste 0 -- -- 75
2019-05-21 02:00:00 10.4 4 Este 8 Este 0 -- -- 69
2019-05-21 01:00:00 11.1 6 Este 9 Este 0 -- -- 66
2019-05-21 00:00:00 13.4 0 Calma 14 Nordeste 0 -- -- 60
2019-05-20 23:00:00 14.4 7 Nordeste 22 Norte 0 -- -- 54
2019-05-20 22:00:00 15.9 5 Nordeste 10 Norte 0 -- -- 36
2019-05-20 21:00:00 18.4 6 Oeste 20 Sudoeste 0 -- -- 34
2019-05-20 20:00:00 19.1 10 Sudoeste 23 Sudoeste 0 -- -- 31
2019-05-20 19:00:00 21.2 12 Sudoeste 22 Sudoeste 0 -- -- 27
2019-05-20 18:00:00 22.6 6 Sudoeste 28 Sudoeste 0 -- -- 23
2019-05-20 17:00:00 21.9 9 Sur 27 Oeste 0 -- -- 27
2019-05-20 16:00:00 21.8 17 Sudoeste 39 Oeste 0 -- -- 28
2019-05-20 15:00:00 21.6 17 Sudoeste 32 Sudoeste 0 -- -- 32
2019-05-20 14:00:00 19.5 22 Sudoeste 37 Sudoeste 0 -- -- 40
2019-05-20 13:00:00 18.2 15 Sudoeste 36 Sudoeste 0 -- -- 45
2019-05-20 12:00:00 17.3 14 Sudoeste 26 Sudoeste 0 -- -- 50
2019-05-20 11:00:00 15.4 8 Sudoeste 16 Oeste 0 -- -- 51
2019-05-20 10:00:00 11.7 3 Sudoeste 14 Sudoeste 0 -- -- 71
2019-05-20 09:00:00 8.5 3 Oeste 4 Oeste 0.2 -- -- 92
2019-05-20 08:00:00 5.6 0 Calma 2 Este 0 -- -- 93
2019-05-20 07:00:00 5.4 0 Calma 3 Nordeste 0 -- -- 92
2019-05-20 06:00:00 5.5 0 Calma 5 Oeste 0 -- -- 90
2019-05-20 05:00:00 5.5 0 Calma 6 Norte 0 -- -- 88
2019-05-20 04:00:00 6 0 Calma 5 Nordeste 0 -- -- 86
2019-05-20 03:00:00 7 3 Norte 9 Norte 0 -- -- 85
2019-05-20 02:00:00 7.3 0 Calma 6 Este 0 -- -- 84
2019-05-20 01:00:00 8.6 3 Nordeste 9 Sudeste 0 -- -- 78
2019-05-20 00:00:00 9.5 0 Calma 11 Nordeste 0 -- -- 76
2019-05-19 23:00:00 10.9 5 Este 13 Nordeste 0 -- -- 67
2019-05-19 22:00:00 12.3 4 Este 14 Nordeste 0 -- -- 62
2019-05-19 21:00:00 14.9 6 Nordeste 21 Este 0 -- -- 56
2019-05-19 20:00:00 16.1 10 Sudeste 32 Sur 0 -- -- 48
2019-05-19 19:00:00 15.5 3 Oeste 24 Oeste 0.2 -- -- 56
2019-05-19 18:00:00 16.3 11 Sur 33 Este 0 -- -- 39
2019-05-19 17:00:00 18 11 Sudoeste 32 Sudoeste 0 -- -- 35
2019-05-19 16:00:00 19.2 15 Oeste 26 Sudoeste 0 -- -- 31
2019-05-19 15:00:00 17.9 12 Sudoeste 28 Sudoeste 0 -- -- 34
2019-05-19 14:00:00 18 17 Sudoeste 32 Sudoeste 0 -- -- 39
2019-05-19 13:00:00 19.1 14 Sudoeste 28 Sudoeste 0 -- -- 39
2019-05-19 12:00:00 18 10 Sudoeste 22 Sudoeste 0 -- -- 38
2019-05-19 11:00:00 15.8 9 Sudoeste 18 Sudoeste 0 -- -- 48
2019-05-19 10:00:00 14 8 Sudoeste 14 Oeste 0 -- -- 51
2019-05-19 09:00:00 10.8 2 Sudoeste 7 Sur 0 -- -- 69
2019-05-19 08:00:00 5.6 0 Calma 4 Norte 0 -- -- 87
2019-05-19 07:00:00 5.4 2 Sur 7 Este 0 -- -- 84
2019-05-19 06:00:00 6.7 5 Sudeste 8 Nordeste 0 -- -- 79
2019-05-19 05:00:00 6.9 3 Sudeste 9 Norte 0 -- -- 80
2019-05-19 04:00:00 7.2 4 Sudeste 5 Sudeste 0 -- -- 80
2019-05-19 03:00:00 7.2 2 Norte 7 Sudeste 0 -- -- 78
2019-05-19 02:00:00 7.8 4 Sudeste 6 Este 0 -- -- 77
2019-05-19 01:00:00 7.7 0 Calma 6 Este 0 -- -- 75
2019-05-19 00:00:00 8.2 4 Este 7 Este 0 -- -- 69
2019-05-18 23:00:00 9.6 3 Este 9 Este 0 -- -- 64
2019-05-18 22:00:00 11.1 4 Este 8 Este 0 -- -- 60
2019-05-18 21:00:00 13.2 4 Norte 15 Norte 0 -- -- 48
2019-05-18 20:00:00 15.6 0 Calma 18 Sur 0 -- -- 38
2019-05-18 19:00:00 16.7 11 Sudoeste 26 Sudoeste 0 -- -- 39
2019-05-18 18:00:00 14.8 10 Sur 27 Sur 0 -- -- 43
2019-05-18 17:00:00 14.6 9 Sudoeste 43 Oeste 0 -- -- 45
2019-05-18 16:00:00 15.4 14 Oeste 31 Oeste 0 -- -- 39
2019-05-18 15:00:00 18.8 20 Oeste 34 Oeste 0 -- -- 31
2019-05-18 14:00:00 16.3 15 Sur 31 Sudoeste 0 -- -- 32
2019-05-18 13:00:00 16.3 18 Sudoeste 37 Sudoeste 0 -- -- 43
2019-05-18 12:00:00 13.1 17 Sudoeste 37 Sudoeste 0 -- -- 56
2019-05-18 11:00:00 14.8 19 Sudoeste 30 Sudoeste 0 -- -- 53
2019-05-18 10:00:00 13.7 6 Sudoeste 21 Sur 0 -- -- 60
2019-05-18 09:00:00 11.1 7 Sudoeste 20 Sur 0 -- -- 70
2019-05-18 08:00:00 9.3 3 Sur 6 Sudeste 0 -- -- 87
2019-05-18 07:00:00 8.7 4 Sudeste 12 Sur 0 -- -- 84
2019-05-18 06:00:00 9.4 4 Sur 18 Sur 0 -- -- 82
2019-05-18 05:00:00 9.9 4 Sudoeste 14 Sudoeste 0 -- -- 87
2019-05-18 04:00:00 9.8 0 Calma 4 Sur 0 -- -- 85
2019-05-18 03:00:00 10.6 0 Calma 8 Sudeste 0 -- -- 84
2019-05-18 02:00:00 10.7 0 Calma 6 Sudeste 0 -- -- 83
2019-05-18 01:00:00 10.8 3 Oeste 6 Noroeste 0 -- -- 83
2019-05-18 00:00:00 11 3 Sudeste 5 Sudeste 0 -- -- 84
2019-05-17 23:00:00 11.2 0 Calma 6 Este 0 -- -- 83
2019-05-17 22:00:00 11.9 3 Nordeste 8 Oeste 0.4 -- -- 77
2019-05-17 21:00:00 13 2 Este 14 Norte 0 -- -- 72
2019-05-17 20:00:00 14.1 11 Norte 24 Norte 0 -- -- 62
2019-05-17 19:00:00 15.1 9 Sudoeste 22 Sur 0 -- -- 57
2019-05-17 18:00:00 15.6 9 Sur 27 Sudoeste 0 -- -- 53
2019-05-17 17:00:00 17.2 11 Sudoeste 29 Oeste 0 -- -- 51
2019-05-17 16:00:00 15.2 14 Sudoeste 30 Sudoeste 0 -- -- 55
2019-05-17 15:00:00 14.9 12 Sudoeste 27 Sudoeste 0 -- -- 57
2019-05-17 14:00:00 17.3 14 Sudoeste 24 Sudoeste 0 -- -- 51
2019-05-17 13:00:00 15.6 8 Oeste 23 Este 0 -- -- 49
2019-05-17 12:00:00 12.2 15 Este 35 Este 0 -- -- 57
2019-05-17 11:00:00 12 18 Este 35 Este 0 -- -- 57
2019-05-17 10:00:00 10.1 19 Sudeste 42 Este 0 -- -- 68
2019-05-17 09:00:00 10.1 19 Este 40 Este 0.2 -- -- 74
2019-05-17 08:00:00 10.2 4 Noroeste 14 Sur 0 -- -- 86
2019-05-17 07:00:00 10.2 2 Nordeste 17 Sudeste 1.6 -- -- 85
2019-05-17 06:00:00 10.9 10 Sudeste 48 Sudeste 0.8 -- -- 77
2019-05-17 05:00:00 11.1 27 Sudeste 56 Sudeste 0.6 -- -- 74
2019-05-17 04:00:00 11.3 17 Este 31 Este 0 -- -- 74
2019-05-17 03:00:00 10.7 3 Norte 14 Este 0 -- -- 82
2019-05-17 02:00:00 10.4 5 Sudeste 36 Este 0.4 -- -- 79
2019-05-17 01:00:00 10.7 21 Este 50 Este 4 -- -- 72
2019-05-17 00:00:00 13.4 7 Sudoeste 54 Sudoeste 0.4 -- -- 65